Angostura, New Mexico
Current Conditions -  °F | °C
As of 6:35 PM on Tuesday 21 Oct 2014 (Local Time) from KSKX Reporting Station
Few Clouds Few Clouds  
Wind Chill: 54°   Ceiling: Unl
Heat Index: 54°   Visibility: 10mi
Dew Point: 39°   Wind: 3mph
Humidity: 58%   Direction: 250°WSW
Pressure: 30.14"   Gusts: NA
Location:  36.1892°N, 105.688°W
Report Text: KSKX 220035Z AUTO 25003KT 10SM FEW038 12/04 A3014 RMK AO1
Loading
Personal Weather Stations






























Interactive Weather Map
Tropical Storm Tracking
New forecast layout! Learn more

10-Day Weather Forecast

Advertisements
Track Severe Weather on mobile